sensor_id;sensor_type;location;lat;lon;timestamp;P1;durP1;ratioP1;P2;durP2;ratioP2
34405;SDS011;20658;45.630;8.886;2023-04-03T00:00:40;12.15;;;6.85;;
34405;SDS011;20658;45.630;8.886;2023-04-03T00:03:13;10.77;;;6.03;;
34405;SDS011;20658;45.630;8.886;2023-04-03T00:05:42;9.45;;;5.68;;
34405;SDS011;20658;45.630;8.886;2023-04-03T00:08:15;11.50;;;6.05;;
34405;SDS011;20658;45.630;8.886;2023-04-03T00:10:43;13.80;;;7.28;;
34405;SDS011;20658;45.630;8.886;2023-04-03T00:13:18;14.50;;;6.47;;
34405;SDS011;20658;45.630;8.886;2023-04-03T00:15:52;13.90;;;7.07;;
34405;SDS011;20658;45.630;8.886;2023-04-03T00:18:25;14.77;;;6.70;;
34405;SDS011;20658;45.630;8.886;2023-04-03T00:20:59;14.32;;;6.93;;
34405;SDS011;20658;45.630;8.886;2023-04-03T00:23:27;16.55;;;8.57;;
34405;SDS011;20658;45.630;8.886;2023-04-03T00:26:01;14.95;;;7.30;;
34405;SDS011;20658;45.630;8.886;2023-04-03T00:28:36;14.68;;;7.53;;
34405;SDS011;20658;45.630;8.886;2023-04-03T00:31:10;18.50;;;8.40;;
34405;SDS011;20658;45.630;8.886;2023-04-03T00:33:43;17.15;;;8.82;;
34405;SDS011;20658;45.630;8.886;2023-04-03T00:36:16;15.95;;;7.65;;
34405;SDS011;20658;45.630;8.886;2023-04-03T00:38:50;12.57;;;6.43;;
34405;SDS011;20658;45.630;8.886;2023-04-03T00:41:24;17.70;;;7.38;;
34405;SDS011;20658;45.630;8.886;2023-04-03T00:43:58;14.52;;;5.63;;
34405;SDS011;20658;45.630;8.886;2023-04-03T00:46:27;11.57;;;5.10;;
34405;SDS011;20658;45.630;8.886;2023-04-03T00:48:55;11.23;;;5.15;;
34405;SDS011;20658;45.630;8.886;2023-04-03T00:51:29;11.93;;;5.30;;
34405;SDS011;20658;45.630;8.886;2023-04-03T00:54:03;10.88;;;5.38;;
34405;SDS011;20658;45.630;8.886;2023-04-03T00:56:40;8.77;;;4.63;;
34405;SDS011;20658;45.630;8.886;2023-04-03T00:59:10;8.32;;;4.80;;
34405;SDS011;20658;45.630;8.886;2023-04-03T01:01:47;9.57;;;5.40;;
34405;SDS011;20658;45.630;8.886;2023-04-03T01:04:26;12.02;;;6.28;;
34405;SDS011;20658;45.630;8.886;2023-04-03T01:07:02;25.73;;;11.95;;
34405;SDS011;20658;45.630;8.886;2023-04-03T01:09:39;23.75;;;11.60;;
34405;SDS011;20658;45.630;8.886;2023-04-03T01:12:13;19.70;;;9.75;;
34405;SDS011;20658;45.630;8.886;2023-04-03T01:14:45;25.25;;;12.70;;
34405;SDS011;20658;45.630;8.886;2023-04-03T01:20:23;12.95;;;6.05;;
34405;SDS011;20658;45.630;8.886;2023-04-03T01:23:25;10.15;;;4.53;;
34405;SDS011;20658;45.630;8.886;2023-04-03T01:26:21;13.48;;;4.90;;
34405;SDS011;20658;45.630;8.886;2023-04-03T01:28:54;12.45;;;4.93;;
34405;SDS011;20658;45.630;8.886;2023-04-03T01:31:30;8.98;;;3.90;;
34405;SDS011;20658;45.630;8.886;2023-04-03T01:34:18;11.25;;;4.22;;
34405;SDS011;20658;45.630;8.886;2023-04-03T01:36:52;9.63;;;3.45;;
34405;SDS011;20658;45.630;8.886;2023-04-03T01:39:26;9.18;;;4.25;;
34405;SDS011;20658;45.630;8.886;2023-04-03T01:41:55;8.45;;;3.88;;
34405;SDS011;20658;45.630;8.886;2023-04-03T01:44:34;8.73;;;4.65;;
34405;SDS011;20658;45.630;8.886;2023-04-03T01:47:06;10.38;;;4.00;;
34405;SDS011;20658;45.630;8.886;2023-04-03T01:49:36;10.40;;;4.57;;
34405;SDS011;20658;45.630;8.886;2023-04-03T01:52:05;8.20;;;3.95;;
34405;SDS011;20658;45.630;8.886;2023-04-03T01:54:38;10.40;;;4.60;;
34405;SDS011;20658;45.630;8.886;2023-04-03T01:57:06;8.05;;;3.55;;
34405;SDS011;20658;45.630;8.886;2023-04-03T01:59:35;10.32;;;4.28;;
34405;SDS011;20658;45.630;8.886;2023-04-03T02:02:10;11.38;;;3.45;;
34405;SDS011;20658;45.630;8.886;2023-04-03T02:04:45;9.52;;;3.25;;
34405;SDS011;20658;45.630;8.886;2023-04-03T02:07:19;9.57;;;3.45;;
34405;SDS011;20658;45.630;8.886;2023-04-03T02:09:52;7.40;;;3.28;;
34405;SDS011;20658;45.630;8.886;2023-04-03T02:12:26;10.35;;;5.03;;
34405;SDS011;20658;45.630;8.886;2023-04-03T02:14:59;9.02;;;4.40;;
34405;SDS011;20658;45.630;8.886;2023-04-03T02:17:29;7.25;;;3.45;;
34405;SDS011;20658;45.630;8.886;2023-04-03T02:20:02;7.35;;;3.70;;
34405;SDS011;20658;45.630;8.886;2023-04-03T02:22:36;9.23;;;3.38;;
34405;SDS011;20658;45.630;8.886;2023-04-03T02:25:10;7.63;;;3.92;;
34405;SDS011;20658;45.630;8.886;2023-04-03T02:27:39;9.00;;;3.85;;
34405;SDS011;20658;45.630;8.886;2023-04-03T02:30:08;6.93;;;3.42;;
34405;SDS011;20658;45.630;8.886;2023-04-03T02:32:44;8.38;;;3.70;;
34405;SDS011;20658;45.630;8.886;2023-04-03T02:35:18;7.07;;;3.30;;
34405;SDS011;20658;45.630;8.886;2023-04-03T02:37:54;9.30;;;4.38;;
34405;SDS011;20658;45.630;8.886;2023-04-03T02:40:27;8.27;;;3.90;;
34405;SDS011;20658;45.630;8.886;2023-04-03T02:42:55;8.30;;;4.00;;
34405;SDS011;20658;45.630;8.886;2023-04-03T02:45:29;11.43;;;3.95;;
34405;SDS011;20658;45.630;8.886;2023-04-03T02:48:04;7.47;;;3.50;;
34405;SDS011;20658;45.630;8.886;2023-04-03T02:50:37;8.77;;;4.10;;
34405;SDS011;20658;45.630;8.886;2023-04-03T02:53:11;8.63;;;4.22;;
34405;SDS011;20658;45.630;8.886;2023-04-03T02:55:44;12.40;;;3.10;;
34405;SDS011;20658;45.630;8.886;2023-04-03T02:58:18;10.52;;;3.15;;
34405;SDS011;20658;45.630;8.886;2023-04-03T03:00:54;5.95;;;2.60;;
34405;SDS011;20658;45.630;8.886;2023-04-03T03:03:29;7.43;;;3.10;;
34405;SDS011;20658;45.630;8.886;2023-04-03T03:06:01;8.70;;;3.05;;
34405;SDS011;20658;45.630;8.886;2023-04-03T03:08:36;5.45;;;2.55;;
34405;SDS011;20658;45.630;8.886;2023-04-03T03:11:10;5.53;;;2.42;;
34405;SDS011;20658;45.630;8.886;2023-04-03T03:13:44;8.20;;;3.15;;
34405;SDS011;20658;45.630;8.886;2023-04-03T03:16:17;5.72;;;2.55;;
34405;SDS011;20658;45.630;8.886;2023-04-03T03:18:52;6.50;;;2.50;;
34405;SDS011;20658;45.630;8.886;2023-04-03T03:21:26;5.80;;;2.65;;
34405;SDS011;20658;45.630;8.886;2023-04-03T03:24:00;7.22;;;3.13;;
34405;SDS011;20658;45.630;8.886;2023-04-03T03:26:34;9.52;;;3.20;;
34405;SDS011;20658;45.630;8.886;2023-04-03T03:29:07;7.18;;;2.78;;
34405;SDS011;20658;45.630;8.886;2023-04-03T03:31:41;10.85;;;3.47;;
34405;SDS011;20658;45.630;8.886;2023-04-03T03:34:15;10.35;;;3.72;;
34405;SDS011;20658;45.630;8.886;2023-04-03T03:36:49;8.65;;;3.45;;
34405;SDS011;20658;45.630;8.886;2023-04-03T03:39:22;5.95;;;3.08;;
34405;SDS011;20658;45.630;8.886;2023-04-03T03:41:56;5.57;;;2.58;;
34405;SDS011;20658;45.630;8.886;2023-04-03T03:44:29;6.88;;;2.50;;
34405;SDS011;20658;45.630;8.886;2023-04-03T03:46:58;6.68;;;2.63;;
34405;SDS011;20658;45.630;8.886;2023-04-03T03:49:32;5.15;;;2.25;;
34405;SDS011;20658;45.630;8.886;2023-04-03T03:52:06;4.30;;;2.03;;
34405;SDS011;20658;45.630;8.886;2023-04-03T03:54:36;8.10;;;2.20;;
34405;SDS011;20658;45.630;8.886;2023-04-03T03:57:10;5.22;;;1.90;;
34405;SDS011;20658;45.630;8.886;2023-04-03T03:59:39;3.92;;;1.70;;
34405;SDS011;20658;45.630;8.886;2023-04-03T04:02:08;6.55;;;2.35;;
34405;SDS011;20658;45.630;8.886;2023-04-03T04:04:43;6.50;;;1.88;;
34405;SDS011;20658;45.630;8.886;2023-04-03T04:07:17;7.72;;;1.95;;
34405;SDS011;20658;45.630;8.886;2023-04-03T04:09:50;4.30;;;1.70;;
34405;SDS011;20658;45.630;8.886;2023-04-03T04:12:19;3.22;;;1.58;;
34405;SDS011;20658;45.630;8.886;2023-04-03T04:14:53;5.25;;;1.60;;
34405;SDS011;20658;45.630;8.886;2023-04-03T04:17:27;4.20;;;1.83;;
34405;SDS011;20658;45.630;8.886;2023-04-03T04:20:03;5.05;;;1.38;;
34405;SDS011;20658;45.630;8.886;2023-04-03T04:22:32;4.88;;;1.90;;
34405;SDS011;20658;45.630;8.886;2023-04-03T04:25:06;5.22;;;1.92;;
34405;SDS011;20658;45.630;8.886;2023-04-03T04:27:37;4.28;;;1.60;;
34405;SDS011;20658;45.630;8.886;2023-04-03T04:30:07;4.10;;;1.33;;
34405;SDS011;20658;45.630;8.886;2023-04-03T04:32:37;6.45;;;1.85;;
34405;SDS011;20658;45.630;8.886;2023-04-03T04:35:07;7.95;;;1.90;;
34405;SDS011;20658;45.630;8.886;2023-04-03T04:37:40;21.63;;;3.38;;
34405;SDS011;20658;45.630;8.886;2023-04-03T04:40:08;14.75;;;3.08;;
34405;SDS011;20658;45.630;8.886;2023-04-03T04:42:38;15.73;;;2.40;;
34405;SDS011;20658;45.630;8.886;2023-04-03T04:45:12;18.25;;;2.83;;
34405;SDS011;20658;45.630;8.886;2023-04-03T04:47:47;8.52;;;2.85;;
34405;SDS011;20658;45.630;8.886;2023-04-03T04:50:25;19.35;;;3.10;;
34405;SDS011;20658;45.630;8.886;2023-04-03T04:52:54;14.48;;;3.22;;
34405;SDS011;20658;45.630;8.886;2023-04-03T04:55:23;17.98;;;4.13;;
34405;SDS011;20658;45.630;8.886;2023-04-03T04:57:51;7.65;;;3.08;;
34405;SDS011;20658;45.630;8.886;2023-04-03T05:00:20;8.30;;;3.08;;
34405;SDS011;20658;45.630;8.886;2023-04-03T05:02:50;9.93;;;2.78;;
34405;SDS011;20658;45.630;8.886;2023-04-03T05:05:18;7.22;;;3.03;;
34405;SDS011;20658;45.630;8.886;2023-04-03T05:07:53;10.88;;;3.80;;
34405;SDS011;20658;45.630;8.886;2023-04-03T05:10:27;8.25;;;3.95;;
34405;SDS011;20658;45.630;8.886;2023-04-03T05:12:55;8.30;;;3.80;;
34405;SDS011;20658;45.630;8.886;2023-04-03T05:15:29;7.85;;;3.53;;
34405;SDS011;20658;45.630;8.886;2023-04-03T05:18:03;6.22;;;3.13;;
34405;SDS011;20658;45.630;8.886;2023-04-03T05:20:36;11.10;;;3.92;;
34405;SDS011;20658;45.630;8.886;2023-04-03T05:23:11;14.60;;;3.03;;
34405;SDS011;20658;45.630;8.886;2023-04-03T05:25:46;8.70;;;2.88;;
34405;SDS011;20658;45.630;8.886;2023-04-03T05:28:21;6.80;;;3.13;;
34405;SDS011;20658;45.630;8.886;2023-04-03T05:30:52;5.15;;;2.22;;
34405;SDS011;20658;45.630;8.886;2023-04-03T05:33:32;11.40;;;3.00;;
34405;SDS011;20658;45.630;8.886;2023-04-03T05:36:08;14.43;;;3.65;;
34405;SDS011;20658;45.630;8.886;2023-04-03T05:38:46;10.23;;;3.20;;
34405;SDS011;20658;45.630;8.886;2023-04-03T05:41:20;8.10;;;3.33;;
34405;SDS011;20658;45.630;8.886;2023-04-03T05:43:49;9.68;;;4.28;;
34405;SDS011;20658;45.630;8.886;2023-04-03T05:46:24;13.30;;;2.83;;
34405;SDS011;20658;45.630;8.886;2023-04-03T05:49:01;9.40;;;3.80;;
34405;SDS011;20658;45.630;8.886;2023-04-03T05:51:37;11.13;;;3.35;;
34405;SDS011;20658;45.630;8.886;2023-04-03T05:54:28;8.32;;;3.50;;
34405;SDS011;20658;45.630;8.886;2023-04-03T05:57:10;6.97;;;2.83;;
34405;SDS011;20658;45.630;8.886;2023-04-03T05:59:39;9.93;;;2.80;;
34405;SDS011;20658;45.630;8.886;2023-04-03T06:02:14;6.75;;;2.97;;
34405;SDS011;20658;45.630;8.886;2023-04-03T06:04:50;5.57;;;2.50;;
34405;SDS011;20658;45.630;8.886;2023-04-03T06:07:24;17.10;;;4.30;;
34405;SDS011;20658;45.630;8.886;2023-04-03T06:09:56;15.07;;;4.03;;
34405;SDS011;20658;45.630;8.886;2023-04-03T06:12:30;15.75;;;4.20;;
34405;SDS011;20658;45.630;8.886;2023-04-03T06:15:03;15.75;;;3.17;;
34405;SDS011;20658;45.630;8.886;2023-04-03T06:17:39;8.30;;;3.00;;
34405;SDS011;20658;45.630;8.886;2023-04-03T06:20:13;12.20;;;2.70;;
34405;SDS011;20658;45.630;8.886;2023-04-03T06:22:41;7.55;;;2.60;;
34405;SDS011;20658;45.630;8.886;2023-04-03T06:25:16;6.32;;;2.40;;
34405;SDS011;20658;45.630;8.886;2023-04-03T06:27:50;12.00;;;2.50;;
34405;SDS011;20658;45.630;8.886;2023-04-03T06:30:23;6.43;;;1.92;;
34405;SDS011;20658;45.630;8.886;2023-04-03T06:32:56;7.70;;;2.40;;
34405;SDS011;20658;45.630;8.886;2023-04-03T06:35:30;7.63;;;2.40;;
34405;SDS011;20658;45.630;8.886;2023-04-03T06:40:59;4.88;;;2.25;;
34405;SDS011;20658;45.630;8.886;2023-04-03T06:43:32;7.55;;;2.28;;
34405;SDS011;20658;45.630;8.886;2023-04-03T06:46:06;6.20;;;2.10;;
34405;SDS011;20658;45.630;8.886;2023-04-03T06:48:40;8.88;;;2.90;;
34405;SDS011;20658;45.630;8.886;2023-04-03T06:51:16;21.77;;;2.55;;
34405;SDS011;20658;45.630;8.886;2023-04-03T06:53:52;7.20;;;2.22;;
34405;SDS011;20658;45.630;8.886;2023-04-03T06:56:25;6.55;;;2.70;;
34405;SDS011;20658;45.630;8.886;2023-04-03T06:58:59;9.40;;;3.38;;
34405;SDS011;20658;45.630;8.886;2023-04-03T07:01:33;11.43;;;3.88;;
34405;SDS011;20658;45.630;8.886;2023-04-03T07:04:06;13.60;;;4.10;;
34405;SDS011;20658;45.630;8.886;2023-04-03T07:06:39;14.45;;;3.88;;
34405;SDS011;20658;45.630;8.886;2023-04-03T07:09:09;11.85;;;3.72;;
34405;SDS011;20658;45.630;8.886;2023-04-03T07:11:44;13.02;;;4.28;;
34405;SDS011;20658;45.630;8.886;2023-04-03T07:14:12;15.52;;;5.43;;
34405;SDS011;20658;45.630;8.886;2023-04-03T07:16:45;14.88;;;6.20;;
34405;SDS011;20658;45.630;8.886;2023-04-03T07:19:13;17.55;;;5.97;;
34405;SDS011;20658;45.630;8.886;2023-04-03T07:21:47;21.13;;;7.97;;
34405;SDS011;20658;45.630;8.886;2023-04-03T07:24:20;19.55;;;8.35;;
34405;SDS011;20658;45.630;8.886;2023-04-03T07:26:55;21.27;;;8.02;;
34405;SDS011;20658;45.630;8.886;2023-04-03T07:29:28;16.45;;;7.97;;
34405;SDS011;20658;45.630;8.886;2023-04-03T07:32:02;17.63;;;7.65;;
34405;SDS011;20658;45.630;8.886;2023-04-03T07:34:36;18.08;;;7.60;;
34405;SDS011;20658;45.630;8.886;2023-04-03T07:37:10;16.17;;;6.55;;
34405;SDS011;20658;45.630;8.886;2023-04-03T07:39:44;18.17;;;7.82;;
34405;SDS011;20658;45.630;8.886;2023-04-03T07:42:19;16.95;;;7.32;;
34405;SDS011;20658;45.630;8.886;2023-04-03T07:44:52;18.42;;;6.60;;
34405;SDS011;20658;45.630;8.886;2023-04-03T07:47:25;14.30;;;7.05;;
34405;SDS011;20658;45.630;8.886;2023-04-03T07:49:59;18.38;;;7.50;;
34405;SDS011;20658;45.630;8.886;2023-04-03T07:52:32;16.75;;;8.32;;
34405;SDS011;20658;45.630;8.886;2023-04-03T07:55:06;17.65;;;7.57;;
34405;SDS011;20658;45.630;8.886;2023-04-03T07:57:42;16.58;;;7.28;;
34405;SDS011;20658;45.630;8.886;2023-04-03T08:00:16;12.77;;;6.38;;
34405;SDS011;20658;45.630;8.886;2023-04-03T08:02:50;14.18;;;6.50;;
34405;SDS011;20658;45.630;8.886;2023-04-03T08:05:24;19.45;;;7.13;;
34405;SDS011;20658;45.630;8.886;2023-04-03T08:07:57;13.43;;;5.72;;
34405;SDS011;20658;45.630;8.886;2023-04-03T08:10:31;15.10;;;6.35;;
34405;SDS011;20658;45.630;8.886;2023-04-03T08:13:02;13.05;;;6.45;;
34405;SDS011;20658;45.630;8.886;2023-04-03T08:15:36;15.18;;;7.20;;
34405;SDS011;20658;45.630;8.886;2023-04-03T08:18:09;11.88;;;6.55;;
34405;SDS011;20658;45.630;8.886;2023-04-03T08:20:43;14.57;;;6.45;;
34405;SDS011;20658;45.630;8.886;2023-04-03T08:23:17;15.18;;;6.75;;
34405;SDS011;20658;45.630;8.886;2023-04-03T08:25:51;12.38;;;5.68;;
34405;SDS011;20658;45.630;8.886;2023-04-03T08:28:25;15.02;;;5.97;;
34405;SDS011;20658;45.630;8.886;2023-04-03T08:31:02;19.23;;;6.78;;
34405;SDS011;20658;45.630;8.886;2023-04-03T08:33:38;15.73;;;6.60;;
34405;SDS011;20658;45.630;8.886;2023-04-03T08:36:17;14.25;;;6.45;;
34405;SDS011;20658;45.630;8.886;2023-04-03T08:38:53;13.70;;;6.63;;
34405;SDS011;20658;45.630;8.886;2023-04-03T08:41:29;13.18;;;7.25;;
34405;SDS011;20658;45.630;8.886;2023-04-03T08:44:11;15.80;;;6.63;;
34405;SDS011;20658;45.630;8.886;2023-04-03T08:46:52;14.82;;;6.43;;
34405;SDS011;20658;45.630;8.886;2023-04-03T08:49:39;11.25;;;5.82;;
34405;SDS011;20658;45.630;8.886;2023-04-03T08:52:14;12.30;;;6.20;;
34405;SDS011;20658;45.630;8.886;2023-04-03T08:54:52;9.90;;;5.93;;
34405;SDS011;20658;45.630;8.886;2023-04-03T08:57:29;8.88;;;5.15;;
34405;SDS011;20658;45.630;8.886;2023-04-03T09:00:14;12.05;;;5.57;;
34405;SDS011;20658;45.630;8.886;2023-04-03T09:02:51;12.23;;;5.30;;
34405;SDS011;20658;45.630;8.886;2023-04-03T09:05:30;12.63;;;4.75;;
34405;SDS011;20658;45.630;8.886;2023-04-03T09:08:18;9.32;;;4.90;;
34405;SDS011;20658;45.630;8.886;2023-04-03T09:10:55;14.07;;;4.28;;
34405;SDS011;20658;45.630;8.886;2023-04-03T09:13:39;11.20;;;4.72;;
34405;SDS011;20658;45.630;8.886;2023-04-03T09:16:27;8.02;;;4.22;;
34405;SDS011;20658;45.630;8.886;2023-04-03T09:19:15;8.77;;;3.80;;
34405;SDS011;20658;45.630;8.886;2023-04-03T09:21:56;9.85;;;3.65;;
34405;SDS011;20658;45.630;8.886;2023-04-03T09:24:29;7.70;;;4.10;;
34405;SDS011;20658;45.630;8.886;2023-04-03T09:27:05;6.65;;;3.63;;
34405;SDS011;20658;45.630;8.886;2023-04-03T09:29:43;6.32;;;3.90;;
34405;SDS011;20658;45.630;8.886;2023-04-03T09:32:21;8.55;;;3.63;;
34405;SDS011;20658;45.630;8.886;2023-04-03T09:35:01;6.03;;;3.30;;
34405;SDS011;20658;45.630;8.886;2023-04-03T09:37:38;6.53;;;2.63;;
34405;SDS011;20658;45.630;8.886;2023-04-03T09:40:33;8.63;;;3.75;;
34405;SDS011;20658;45.630;8.886;2023-04-03T09:43:24;9.00;;;3.88;;
34405;SDS011;20658;45.630;8.886;2023-04-03T09:46:16;9.57;;;3.80;;
34405;SDS011;20658;45.630;8.886;2023-04-03T09:49:00;16.05;;;4.97;;
34405;SDS011;20658;45.630;8.886;2023-04-03T09:51:36;10.43;;;4.03;;
34405;SDS011;20658;45.630;8.886;2023-04-03T09:54:25;15.90;;;4.35;;
34405;SDS011;20658;45.630;8.886;2023-04-03T09:57:08;10.90;;;3.40;;
34405;SDS011;20658;45.630;8.886;2023-04-03T09:59:46;12.38;;;3.72;;
34405;SDS011;20658;45.630;8.886;2023-04-03T10:02:32;12.80;;;4.45;;
34405;SDS011;20658;45.630;8.886;2023-04-03T10:05:27;13.93;;;3.90;;
34405;SDS011;20658;45.630;8.886;2023-04-03T10:08:09;14.98;;;3.67;;
34405;SDS011;20658;45.630;8.886;2023-04-03T10:11:09;9.88;;;3.55;;
34405;SDS011;20658;45.630;8.886;2023-04-03T10:13:50;8.85;;;3.42;;
34405;SDS011;20658;45.630;8.886;2023-04-03T10:16:29;9.30;;;3.20;;
34405;SDS011;20658;45.630;8.886;2023-04-03T10:19:14;5.68;;;3.88;;
34405;SDS011;20658;45.630;8.886;2023-04-03T10:25:09;8.48;;;3.33;;
34405;SDS011;20658;45.630;8.886;2023-04-03T10:27:55;8.30;;;4.00;;
34405;SDS011;20658;45.630;8.886;2023-04-03T10:30:34;5.57;;;3.10;;
34405;SDS011;20658;45.630;8.886;2023-04-03T10:33:17;10.27;;;3.17;;
34405;SDS011;20658;45.630;8.886;2023-04-03T10:36:14;6.75;;;3.50;;
34405;SDS011;20658;45.630;8.886;2023-04-03T10:39:01;15.10;;;3.85;;
34405;SDS011;20658;45.630;8.886;2023-04-03T10:41:48;6.53;;;3.25;;
34405;SDS011;20658;45.630;8.886;2023-04-03T10:44:36;25.20;;;4.43;;
34405;SDS011;20658;45.630;8.886;2023-04-03T10:47:53;11.27;;;3.58;;
34405;SDS011;20658;45.630;8.886;2023-04-03T10:50:38;10.23;;;3.65;;
34405;SDS011;20658;45.630;8.886;2023-04-03T10:53:18;6.55;;;3.50;;
34405;SDS011;20658;45.630;8.886;2023-04-03T10:56:07;5.63;;;3.05;;
34405;SDS011;20658;45.630;8.886;2023-04-03T10:58:48;8.90;;;3.95;;
34405;SDS011;20658;45.630;8.886;2023-04-03T11:01:26;6.80;;;3.10;;
34405;SDS011;20658;45.630;8.886;2023-04-03T11:04:06;7.55;;;3.90;;
34405;SDS011;20658;45.630;8.886;2023-04-03T11:06:41;11.63;;;3.30;;
34405;SDS011;20658;45.630;8.886;2023-04-03T11:09:21;6.22;;;3.75;;
34405;SDS011;20658;45.630;8.886;2023-04-03T11:12:02;6.95;;;4.13;;
34405;SDS011;20658;45.630;8.886;2023-04-03T11:14:42;8.55;;;3.85;;
34405;SDS011;20658;45.630;8.886;2023-04-03T11:17:23;9.23;;;4.00;;
34405;SDS011;20658;45.630;8.886;2023-04-03T11:20:06;13.60;;;4.15;;
34405;SDS011;20658;45.630;8.886;2023-04-03T11:22:48;10.25;;;4.20;;
34405;SDS011;20658;45.630;8.886;2023-04-03T11:28:11;7.00;;;3.53;;
34405;SDS011;20658;45.630;8.886;2023-04-03T11:30:47;6.53;;;3.17;;
34405;SDS011;20658;45.630;8.886;2023-04-03T11:33:32;8.90;;;3.63;;
34405;SDS011;20658;45.630;8.886;2023-04-03T11:36:18;7.10;;;3.78;;
34405;SDS011;20658;45.630;8.886;2023-04-03T11:38:56;7.80;;;3.78;;
34405;SDS011;20658;45.630;8.886;2023-04-03T11:41:39;7.93;;;4.15;;
34405;SDS011;20658;45.630;8.886;2023-04-03T11:44:28;7.07;;;3.50;;
34405;SDS011;20658;45.630;8.886;2023-04-03T11:47:07;7.40;;;3.10;;
34405;SDS011;20658;45.630;8.886;2023-04-03T11:49:50;7.30;;;3.80;;
34405;SDS011;20658;45.630;8.886;2023-04-03T11:55:43;11.27;;;4.05;;
34405;SDS011;20658;45.630;8.886;2023-04-03T11:58:27;7.00;;;3.22;;
34405;SDS011;20658;45.630;8.886;2023-04-03T12:01:08;8.45;;;3.15;;
34405;SDS011;20658;45.630;8.886;2023-04-03T12:09:57;10.88;;;3.22;;
34405;SDS011;20658;45.630;8.886;2023-04-03T12:12:33;4.80;;;2.72;;
34405;SDS011;20658;45.630;8.886;2023-04-03T12:15:16;8.07;;;2.88;;
34405;SDS011;20658;45.630;8.886;2023-04-03T12:24:43;7.10;;;3.33;;
34405;SDS011;20658;45.630;8.886;2023-04-03T12:30:01;5.82;;;2.67;;
34405;SDS011;20658;45.630;8.886;2023-04-03T12:32:56;7.18;;;2.85;;
34405;SDS011;20658;45.630;8.886;2023-04-03T12:35:54;6.68;;;3.15;;
34405;SDS011;20658;45.630;8.886;2023-04-03T12:38:48;6.60;;;3.10;;
34405;SDS011;20658;45.630;8.886;2023-04-03T12:41:36;11.02;;;3.90;;
34405;SDS011;20658;45.630;8.886;2023-04-03T12:47:19;8.32;;;3.45;;
34405;SDS011;20658;45.630;8.886;2023-04-03T12:49:59;7.80;;;3.85;;
34405;SDS011;20658;45.630;8.886;2023-04-03T12:52:39;9.52;;;3.40;;
34405;SDS011;20658;45.630;8.886;2023-04-03T12:55:17;6.07;;;3.50;;
34405;SDS011;20658;45.630;8.886;2023-04-03T12:57:53;6.90;;;3.10;;
34405;SDS011;20658;45.630;8.886;2023-04-03T13:00:31;6.55;;;2.75;;
34405;SDS011;20658;45.630;8.886;2023-04-03T13:03:19;4.88;;;2.72;;
34405;SDS011;20658;45.630;8.886;2023-04-03T13:05:59;11.13;;;4.00;;
34405;SDS011;20658;45.630;8.886;2023-04-03T13:08:35;7.25;;;3.28;;
34405;SDS011;20658;45.630;8.886;2023-04-03T13:11:09;6.13;;;2.78;;
34405;SDS011;20658;45.630;8.886;2023-04-03T13:13:53;5.25;;;3.03;;
34405;SDS011;20658;45.630;8.886;2023-04-03T13:16:28;5.20;;;2.53;;
34405;SDS011;20658;45.630;8.886;2023-04-03T13:19:02;9.13;;;3.22;;
34405;SDS011;20658;45.630;8.886;2023-04-03T13:21:36;6.00;;;2.67;;
34405;SDS011;20658;45.630;8.886;2023-04-03T13:24:10;6.70;;;3.20;;
34405;SDS011;20658;45.630;8.886;2023-04-03T13:26:44;5.00;;;2.97;;
34405;SDS011;20658;45.630;8.886;2023-04-03T13:29:20;9.02;;;2.88;;
34405;SDS011;20658;45.630;8.886;2023-04-03T13:31:57;11.05;;;3.00;;
34405;SDS011;20658;45.630;8.886;2023-04-03T13:34:35;5.47;;;3.20;;
34405;SDS011;20658;45.630;8.886;2023-04-03T13:37:19;9.20;;;3.20;;
34405;SDS011;20658;45.630;8.886;2023-04-03T13:40:00;4.63;;;2.30;;
34405;SDS011;20658;45.630;8.886;2023-04-03T13:42:43;8.38;;;2.50;;
34405;SDS011;20658;45.630;8.886;2023-04-03T13:45:18;5.03;;;2.33;;
34405;SDS011;20658;45.630;8.886;2023-04-03T13:47:50;5.28;;;3.13;;
34405;SDS011;20658;45.630;8.886;2023-04-03T13:50:27;6.55;;;3.45;;
34405;SDS011;20658;45.630;8.886;2023-04-03T13:53:02;7.82;;;3.00;;
34405;SDS011;20658;45.630;8.886;2023-04-03T13:55:51;7.18;;;2.85;;
34405;SDS011;20658;45.630;8.886;2023-04-03T13:58:59;6.95;;;2.80;;
34405;SDS011;20658;45.630;8.886;2023-04-03T14:01:40;6.95;;;3.10;;
34405;SDS011;20658;45.630;8.886;2023-04-03T14:04:18;11.48;;;2.63;;
34405;SDS011;20658;45.630;8.886;2023-04-03T14:06:54;4.25;;;3.03;;
34405;SDS011;20658;45.630;8.886;2023-04-03T14:09:24;7.15;;;2.65;;
34405;SDS011;20658;45.630;8.886;2023-04-03T14:11:57;7.45;;;2.63;;
34405;SDS011;20658;45.630;8.886;2023-04-03T14:14:36;6.95;;;2.42;;
34405;SDS011;20658;45.630;8.886;2023-04-03T14:17:13;5.28;;;2.50;;
34405;SDS011;20658;45.630;8.886;2023-04-03T14:19:49;6.20;;;2.28;;
34405;SDS011;20658;45.630;8.886;2023-04-03T14:22:24;6.90;;;2.63;;
34405;SDS011;20658;45.630;8.886;2023-04-03T14:24:56;6.03;;;2.05;;
34405;SDS011;20658;45.630;8.886;2023-04-03T14:27:33;6.93;;;2.88;;
34405;SDS011;20658;45.630;8.886;2023-04-03T14:30:12;6.63;;;3.05;;
34405;SDS011;20658;45.630;8.886;2023-04-03T14:32:49;3.28;;;2.20;;
34405;SDS011;20658;45.630;8.886;2023-04-03T14:35:23;5.00;;;2.33;;
34405;SDS011;20658;45.630;8.886;2023-04-03T14:37:53;4.95;;;2.50;;
34405;SDS011;20658;45.630;8.886;2023-04-03T14:40:22;8.77;;;2.65;;
34405;SDS011;20658;45.630;8.886;2023-04-03T14:43:00;4.78;;;2.30;;
34405;SDS011;20658;45.630;8.886;2023-04-03T14:45:33;3.33;;;1.70;;
34405;SDS011;20658;45.630;8.886;2023-04-03T14:48:02;6.00;;;2.20;;
34405;SDS011;20658;45.630;8.886;2023-04-03T14:50:36;12.15;;;2.38;;
34405;SDS011;20658;45.630;8.886;2023-04-03T14:53:09;6.65;;;2.15;;
34405;SDS011;20658;45.630;8.886;2023-04-03T14:55:41;10.80;;;3.03;;
34405;SDS011;20658;45.630;8.886;2023-04-03T14:58:14;6.78;;;2.20;;
34405;SDS011;20658;45.630;8.886;2023-04-03T15:00:49;9.68;;;2.10;;
34405;SDS011;20658;45.630;8.886;2023-04-03T15:03:22;6.63;;;2.28;;
34405;SDS011;20658;45.630;8.886;2023-04-03T15:05:55;5.68;;;2.08;;
34405;SDS011;20658;45.630;8.886;2023-04-03T15:08:25;7.00;;;2.03;;
34405;SDS011;20658;45.630;8.886;2023-04-03T15:10:57;6.70;;;2.10;;
34405;SDS011;20658;45.630;8.886;2023-04-03T15:13:33;7.38;;;2.05;;
34405;SDS011;20658;45.630;8.886;2023-04-03T15:16:10;4.55;;;2.10;;
34405;SDS011;20658;45.630;8.886;2023-04-03T15:18:48;7.15;;;2.35;;
34405;SDS011;20658;45.630;8.886;2023-04-03T15:21:17;7.15;;;1.77;;
34405;SDS011;20658;45.630;8.886;2023-04-03T15:23:50;10.38;;;2.47;;
34405;SDS011;20658;45.630;8.886;2023-04-03T15:26:18;8.65;;;2.10;;
34405;SDS011;20658;45.630;8.886;2023-04-03T15:28:53;10.80;;;2.10;;
34405;SDS011;20658;45.630;8.886;2023-04-03T15:31:21;3.45;;;1.70;;
34405;SDS011;20658;45.630;8.886;2023-04-03T15:33:55;5.85;;;2.00;;
34405;SDS011;20658;45.630;8.886;2023-04-03T15:36:28;3.78;;;1.95;;
34405;SDS011;20658;45.630;8.886;2023-04-03T15:39:01;4.60;;;2.05;;
34405;SDS011;20658;45.630;8.886;2023-04-03T15:41:35;4.95;;;1.98;;
34405;SDS011;20658;45.630;8.886;2023-04-03T15:44:10;7.25;;;2.00;;
34405;SDS011;20658;45.630;8.886;2023-04-03T15:46:43;9.20;;;2.30;;
34405;SDS011;20658;45.630;8.886;2023-04-03T15:49:17;4.43;;;1.92;;
34405;SDS011;20658;45.630;8.886;2023-04-03T15:51:51;8.23;;;2.53;;
34405;SDS011;20658;45.630;8.886;2023-04-03T15:54:25;7.60;;;2.00;;
34405;SDS011;20658;45.630;8.886;2023-04-03T15:57:00;5.20;;;2.42;;
34405;SDS011;20658;45.630;8.886;2023-04-03T15:59:35;6.75;;;1.85;;
34405;SDS011;20658;45.630;8.886;2023-04-03T16:02:08;9.20;;;2.08;;
34405;SDS011;20658;45.630;8.886;2023-04-03T16:04:45;8.60;;;2.30;;
34405;SDS011;20658;45.630;8.886;2023-04-03T16:07:18;6.47;;;2.00;;
34405;SDS011;20658;45.630;8.886;2023-04-03T16:09:52;8.52;;;2.08;;